Andrews, Indiana
Current Conditions -  °F | °C
As of 9:15 AM on Tuesday 21 Oct 2014 (Local Time) from KHHG Reporting Station
Broken Clouds Broken Clouds  
Wind Chill: 43°   Ceiling: 6000
Heat Index: 47°   Visibility: 10mi
Dew Point: 42°   Wind: 8mph
Humidity: 81%   Direction: 350°N
Pressure: 30.04"   Gusts: NA
Location:  40.86°N, 85.6°W
Report Text: KHHG 211315Z AUTO 35007KT 10SM BKN060 09/05 A3004 RMK AO2 T00850054
Loading
Personal Weather Stations






























Interactive Weather Map
Tropical Storm Tracking
New forecast layout! Learn more

10-Day Weather Forecast

Advertisements
Track Severe Weather on mobile